Time;durP1;ratioP1;P1;durP2;ratioP2;P2;SDS_P1;SDS_P2;PMS_P1;PMS_P2;Temp;Humidity;BMP_temperature;BMP_pressure;BME280_temperature;BME280_humidity;BME280_pressure;Samples;Min_cycle;Max_cycle;Signal;HPM_P1;HPM_P2
2023/03/18 00:01:14;;;;;;;5.63;2.95;;;;;;;0.14;100.00;99852.84;5140466;28;20405;-56
2023/03/18 00:03:41;;;;;;;5.97;2.58;;;;;;;0.20;100.00;99859.84;5140568;28;20047;-62
2023/03/18 00:06:10;;;;;;;12.70;3.45;;;;;;;-0.23;100.00;99864.09;5140465;27;20059;-57
2023/03/18 00:08:38;;;;;;;8.80;2.45;;;;;;;0.06;100.00;99863.41;5140841;28;20107;-63
2023/03/18 00:11:04;;;;;;;9.15;2.53;;;;;;;-0.04;100.00;99867.75;5140361;28;20051;-59
2023/03/18 00:13:32;;;;;;;6.93;2.88;;;;;;;0.25;100.00;99874.38;5140320;28;20084;-61
2023/03/18 00:15:58;;;;;;;8.45;2.55;;;;;;;0.22;100.00;99879.22;5140312;28;20378;-56
2023/03/18 00:18:24;;;;;;;6.55;2.63;;;;;;;0.23;100.00;99890.81;5140388;28;20142;-59
2023/03/18 00:20:51;;;;;;;7.03;2.60;;;;;;;0.14;100.00;99893.31;5140001;28;20122;-63
2023/03/18 00:23:17;;;;;;;8.63;2.75;;;;;;;-0.08;100.00;99882.88;5140401;28;20057;-63
2023/03/18 00:25:46;;;;;;;8.07;1.95;;;;;;;-0.01;100.00;99878.00;5140041;28;20374;-57
2023/03/18 00:28:12;;;;;;;8.00;2.05;;;;;;;0.10;100.00;99877.94;5140372;28;20141;-56
2023/03/18 00:30:40;;;;;;;4.90;2.42;;;;;;;0.08;100.00;99877.44;5140164;28;20103;-63
2023/03/18 00:33:07;;;;;;;3.75;1.95;;;;;;;-0.09;100.00;99869.69;5140046;28;20055;-62
2023/03/18 00:35:33;;;;;;;5.20;1.67;;;;;;;-0.01;100.00;99856.44;5140118;27;20043;-59
2023/03/18 00:38:02;;;;;;;4.22;1.63;;;;;;;-0.13;100.00;99861.38;5139766;28;20047;-60
2023/03/18 00:40:41;;;;;;;4.57;1.92;;;;;;;-0.17;100.00;99854.09;5140166;28;20401;-58
2023/03/18 00:43:07;;;;;;;5.40;2.10;;;;;;;-0.25;100.00;99845.50;5139675;28;20050;-57
2023/03/18 00:45:36;;;;;;;5.38;2.58;;;;;;;-0.29;100.00;99830.97;5140039;28;20134;-60
2023/03/18 00:48:03;;;;;;;4.53;2.50;;;;;;;-0.18;100.00;99820.94;5139898;28;20140;-60
2023/03/18 00:50:29;;;;;;;7.03;2.03;;;;;;;-0.27;100.00;99822.59;5140032;28;20051;-60
2023/03/18 00:52:55;;;;;;;7.82;2.45;;;;;;;-0.30;100.00;99820.47;5139743;28;20195;-58
2023/03/18 00:55:22;;;;;;;7.07;2.15;;;;;;;-0.27;100.00;99807.28;5139464;28;20409;-63
2023/03/18 00:57:48;;;;;;;6.53;2.22;;;;;;;-0.38;100.00;99797.59;5139687;28;20054;-63
2023/03/18 01:00:15;;;;;;;3.28;1.98;;;;;;;-0.46;100.00;99792.81;5139635;28;20154;-59
2023/03/18 01:02:41;;;;;;;6.55;2.28;;;;;;;-0.33;100.00;99783.31;5139734;28;20133;-57
2023/03/18 01:05:10;;;;;;;3.42;1.85;;;;;;;-0.61;100.00;99787.47;5139448;27;20061;-60
2023/03/18 01:07:36;;;;;;;4.00;1.60;;;;;;;-0.39;100.00;99777.16;5139699;28;20142;-62
2023/03/18 01:10:03;;;;;;;5.22;1.92;;;;;;;-0.65;100.00;99759.50;5138887;27;20420;-60
2023/03/18 01:12:29;;;;;;;3.22;2.38;;;;;;;-0.40;100.00;99763.94;5139674;28;20058;-56
2023/03/18 01:14:55;;;;;;;3.17;1.65;;;;;;;-0.51;100.00;99747.03;5139501;28;20141;-58
2023/03/18 01:17:21;;;;;;;4.72;2.15;;;;;;;-0.57;100.00;99751.63;5139639;28;20080;-57
2023/03/18 01:19:47;;;;;;;4.53;1.40;;;;;;;-0.92;100.00;99751.78;5139287;28;20065;-56
2023/03/18 01:22:13;;;;;;;2.83;1.52;;;;;;;-0.71;100.00;99729.88;5139757;28;20134;-62
2023/03/18 01:24:39;;;;;;;3.78;1.90;;;;;;;-0.62;100.00;99721.25;5139266;28;20054;-57
2023/03/18 01:27:06;;;;;;;3.30;1.58;;;;;;;-0.76;100.00;99723.75;5138992;28;20086;-64
2023/03/18 01:29:33;;;;;;;4.65;1.25;;;;;;;-0.56;100.00;99712.06;5139309;28;20047;-61
2023/03/18 01:31:59;;;;;;;2.67;1.38;;;;;;;-0.95;100.00;99728.91;5139114;28;20055;-60
2023/03/18 01:34:25;;;;;;;4.13;1.77;;;;;;;-0.62;100.00;99707.78;5139176;27;20057;-60
2023/03/18 01:36:51;;;;;;;3.45;1.90;;;;;;;-0.59;100.00;99713.41;5139017;28;20046;-57
2023/03/18 01:39:17;;;;;;;3.28;1.50;;;;;;;-0.62;100.00;99723.94;5139015;28;20051;-55
2023/03/18 01:41:43;;;;;;;3.53;1.63;;;;;;;-0.87;100.00;99727.53;5138805;28;20050;-63
2023/03/18 01:44:14;;;;;;;6.25;1.60;;;;;;;-0.83;100.00;99717.84;5139145;28;20050;-60
2023/03/18 01:46:43;;;;;;;7.45;1.52;;;;;;;-0.68;100.00;99717.75;5138746;28;20397;-62
2023/03/18 01:49:14;;;;;;;6.93;1.80;;;;;;;-0.82;100.00;99724.84;5139025;28;20043;-55
2023/03/18 01:51:42;;;;;;;2.08;1.08;;;;;;;-0.61;100.00;99718.25;5138625;28;20055;-57
2023/03/18 01:54:11;;;;;;;2.45;1.30;;;;;;;-0.68;100.00;99727.72;5138528;28;20456;-61
2023/03/18 01:56:39;;;;;;;3.03;1.40;;;;;;;-0.60;100.00;99741.44;5138813;28;20051;-64
2023/03/18 01:59:07;;;;;;;4.55;1.48;;;;;;;-0.72;100.00;99727.47;5138601;28;20142;-56
2023/03/18 02:01:39;;;;;;;3.65;1.05;;;;;;;-0.76;100.00;99734.50;5138797;28;20046;-61
2023/03/18 02:04:09;;;;;;;6.40;1.30;;;;;;;-0.62;100.00;99729.31;5138494;27;20061;-62
2023/03/18 02:06:35;;;;;;;1.65;1.33;;;;;;;-0.57;100.00;99734.66;5138445;28;20059;-57
2023/03/18 02:09:02;;;;;;;2.70;1.52;;;;;;;-0.97;100.00;99731.91;5138419;28;20328;-63
2023/03/18 02:11:31;;;;;;;4.03;1.40;;;;;;;-0.57;100.00;99727.38;5138829;28;20427;-54
2023/03/18 02:13:58;;;;;;;1.52;0.98;;;;;;;-0.80;100.00;99733.41;5138467;28;20362;-57
2023/03/18 02:16:29;;;;;;;2.60;1.25;;;;;;;-0.63;100.00;99731.22;5138463;28;20047;-58
2023/03/18 02:19:00;;;;;;;3.08;1.50;;;;;;;-0.80;100.00;99733.41;5138564;28;20051;-60
2023/03/18 02:21:36;;;;;;;7.63;1.30;;;;;;;-0.76;100.00;99721.03;5137958;27;20051;-58
2023/03/18 02:24:11;;;;;;;2.10;1.35;;;;;;;-0.44;100.00;99719.78;5139016;28;20138;-63
2023/03/18 02:26:49;;;;;;;3.15;1.45;;;;;;;-0.53;100.00;99733.06;5138387;28;20051;-59
2023/03/18 02:29:18;;;;;;;2.17;1.65;;;;;;;-0.89;100.00;99735.91;5138412;28;20051;-62
2023/03/18 02:31:46;;;;;;;3.13;1.55;;;;;;;-0.75;100.00;99706.50;5138002;28;20055;-59
2023/03/18 02:34:13;;;;;;;3.03;1.83;;;;;;;-0.89;100.00;99703.59;5138356;27;20146;-57
2023/03/18 02:36:40;;;;;;;5.65;1.52;;;;;;;-0.63;100.00;99695.38;5138168;28;20058;-63
2023/03/18 02:39:07;;;;;;;2.00;1.30;;;;;;;-0.46;100.00;99716.59;5137810;28;20468;-57
2023/03/18 02:41:35;;;;;;;3.17;1.38;;;;;;;-0.64;100.00;99713.44;5137921;28;20491;-63
2023/03/18 02:44:01;;;;;;;3.92;1.20;;;;;;;-0.69;100.00;99723.44;5138012;28;20047;-59
2023/03/18 02:46:35;;;;;;;2.38;1.42;;;;;;;-0.50;100.00;99717.13;5137974;28;20057;-54
2023/03/18 02:49:03;;;;;;;3.33;1.67;;;;;;;-0.57;100.00;99716.63;5137717;28;20469;-63
2023/03/18 02:51:30;;;;;;;6.45;1.40;;;;;;;-0.57;100.00;99731.97;5138038;28;20141;-57
2023/03/18 02:54:00;;;;;;;2.65;1.63;;;;;;;-0.60;100.00;99716.38;5137933;28;20078;-59
2023/03/18 02:56:26;;;;;;;2.95;1.75;;;;;;;-0.60;100.00;99722.59;5138048;28;20054;-62
2023/03/18 02:58:52;;;;;;;2.67;1.33;;;;;;;-0.81;100.00;99697.63;5137551;28;20051;-63
2023/03/18 03:01:18;;;;;;;3.65;1.80;;;;;;;-0.79;100.00;99698.16;5137710;28;20366;-63
2023/03/18 03:03:45;;;;;;;1.98;1.52;;;;;;;-0.86;100.00;99697.66;5137721;28;20137;-56
2023/03/18 03:06:11;;;;;;;4.50;1.83;;;;;;;-0.92;100.00;99679.13;5137402;27;20392;-62
2023/03/18 03:08:39;;;;;;;3.17;1.55;;;;;;;-0.78;100.00;99680.91;5137754;28;20136;-63
2023/03/18 03:11:05;;;;;;;6.22;1.65;;;;;;;-0.83;100.00;99672.09;5137587;28;20055;-63
2023/03/18 03:13:31;;;;;;;2.92;1.63;;;;;;;-0.92;100.00;99663.78;5137593;28;20051;-58
2023/03/18 03:15:57;;;;;;;4.15;1.77;;;;;;;-0.84;100.00;99667.75;5137712;28;20062;-63
2023/03/18 03:18:23;;;;;;;3.47;1.70;;;;;;;-0.86;100.00;99680.72;5137702;28;20134;-63
2023/03/18 03:20:50;;;;;;;1.65;1.50;;;;;;;-1.00;100.00;99675.94;5137213;28;20434;-60
2023/03/18 03:23:16;;;;;;;1.60;1.38;;;;;;;-0.96;100.00;99671.59;5137725;28;20090;-57
2023/03/18 03:25:43;;;;;;;4.53;1.60;;;;;;;-1.09;100.00;99652.56;5137286;28;20138;-63
2023/03/18 03:28:11;;;;;;;1.98;1.40;;;;;;;-1.06;100.00;99652.00;5137634;28;20051;-63
2023/03/18 03:30:37;;;;;;;1.95;1.42;;;;;;;-0.93;100.00;99650.56;5137158;28;20138;-62
2023/03/18 03:33:04;;;;;;;2.47;1.42;;;;;;;-0.75;100.00;99663.41;5138030;27;20057;-63
2023/03/18 03:35:30;;;;;;;2.53;1.30;;;;;;;-0.87;100.00;99679.06;5140654;27;20138;-59
2023/03/18 03:37:57;;;;;;;7.40;1.77;;;;;;;-0.90;100.00;99690.41;5140769;28;20515;-59
2023/03/18 03:40:23;;;;;;;2.55;1.30;;;;;;;-0.93;100.00;99680.19;5140846;28;20142;-59
2023/03/18 03:42:50;;;;;;;1.70;1.40;;;;;;;-1.02;100.00;99678.06;5140772;28;20051;-58
2023/03/18 03:45:17;;;;;;;3.17;1.35;;;;;;;-0.74;100.00;99673.91;5140932;28;20481;-64
2023/03/18 03:47:45;;;;;;;1.88;1.30;;;;;;;-1.04;100.00;99693.69;5140706;28;20047;-54
2023/03/18 03:50:12;;;;;;;3.00;1.70;;;;;;;-0.92;100.00;99677.22;5141042;28;20054;-62
2023/03/18 03:52:38;;;;;;;3.15;1.52;;;;;;;-0.92;100.00;99688.00;5140617;28;20061;-58
2023/03/18 03:55:07;;;;;;;4.07;1.70;;;;;;;-0.89;100.00;99694.72;5141060;28;20167;-60
2023/03/18 03:57:35;;;;;;;2.67;1.50;;;;;;;-0.72;100.00;99679.03;5140423;28;20431;-57
2023/03/18 04:00:01;;;;;;;4.35;1.50;;;;;;;-0.83;100.00;99696.31;5140369;28;20370;-59
2023/03/18 04:02:27;;;;;;;5.10;1.80;;;;;;;-0.93;100.00;99682.88;5140399;28;20468;-63
2023/03/18 04:04:53;;;;;;;3.90;1.90;;;;;;;-0.88;100.00;99669.41;5140520;27;20058;-63
2023/03/18 04:07:19;;;;;;;5.10;1.85;;;;;;;-0.77;100.00;99671.78;5140450;28;20051;-60
2023/03/18 04:09:45;;;;;;;2.65;1.38;;;;;;;-0.87;100.00;99673.69;5140437;28;20053;-61
2023/03/18 04:12:13;;;;;;;2.35;1.77;;;;;;;-1.09;100.00;99656.03;5140657;28;20309;-62
2023/03/18 04:14:39;;;;;;;2.28;1.30;;;;;;;-0.99;100.00;99653.31;5140264;28;20047;-59
2023/03/18 04:17:05;;;;;;;2.30;1.50;;;;;;;-0.91;100.00;99653.81;5140568;28;20047;-57
2023/03/18 04:19:32;;;;;;;3.25;1.67;;;;;;;-0.92;100.00;99660.28;5140211;28;20134;-56
2023/03/18 04:21:58;;;;;;;4.53;1.80;;;;;;;-0.75;100.00;99660.72;5140446;28;20115;-57
2023/03/18 04:24:25;;;;;;;3.47;1.80;;;;;;;-0.79;100.00;99662.38;5139958;28;20358;-59
2023/03/18 04:26:51;;;;;;;3.25;1.63;;;;;;;-0.74;100.00;99671.19;5140244;28;20413;-60
2023/03/18 04:29:17;;;;;;;6.97;1.60;;;;;;;-0.92;100.00;99689.88;5140205;28;20177;-56
2023/03/18 04:31:43;;;;;;;3.65;1.90;;;;;;;-0.64;100.00;99696.47;5139890;28;20055;-56
2023/03/18 04:34:10;;;;;;;7.40;1.70;;;;;;;-0.74;100.00;99713.47;5140127;27;20050;-63
2023/03/18 04:36:36;;;;;;;3.17;1.50;;;;;;;-0.80;100.00;99728.03;5139998;28;20054;-58
2023/03/18 04:39:02;;;;;;;4.68;1.48;;;;;;;-0.84;100.00;99729.69;5140184;28;20145;-60
2023/03/18 04:41:28;;;;;;;3.45;1.48;;;;;;;-0.87;100.00;99722.16;5139775;28;20055;-56
2023/03/18 04:43:54;;;;;;;6.97;1.92;;;;;;;-0.67;100.00;99722.06;5140144;28;20188;-63
2023/03/18 04:46:21;;;;;;;3.97;1.67;;;;;;;-0.46;100.00;99741.63;5138932;27;20141;-62
2023/03/18 04:48:47;;;;;;;3.97;1.98;;;;;;;-0.51;100.00;99761.31;5140074;28;20133;-63
2023/03/18 04:51:13;;;;;;;2.22;1.35;;;;;;;-0.60;100.00;99773.75;5139610;28;20339;-63
2023/03/18 04:53:39;;;;;;;5.28;1.83;;;;;;;-0.50;100.00;99768.31;5139961;28;20059;-60
2023/03/18 04:56:06;;;;;;;4.78;2.28;;;;;;;-0.25;100.00;99783.53;5139826;28;20146;-58
2023/03/18 04:58:32;;;;;;;4.00;2.05;;;;;;;-0.26;100.00;99798.09;5139718;28;20328;-59
2023/03/18 05:00:58;;;;;;;4.85;2.03;;;;;;;-0.46;100.00;99811.66;5139665;28;20415;-59
2023/03/18 05:03:24;;;;;;;2.65;1.92;;;;;;;0.31;100.00;99811.22;5139347;28;20076;-57
2023/03/18 05:05:51;;;;;;;2.17;1.83;;;;;;;1.39;100.00;99861.25;5139674;27;20130;-61
2023/03/18 05:08:17;;;;;;;3.55;1.65;;;;;;;2.15;100.00;99912.81;5139256;28;20141;-62
2023/03/18 05:10:43;;;;;;;3.78;1.98;;;;;;;2.77;100.00;99951.47;5139736;28;20145;-62
2023/03/18 05:13:09;;;;;;;5.20;1.83;;;;;;;3.64;100.00;99987.97;5139247;28;20043;-61
2023/03/18 05:15:36;;;;;;;5.85;2.42;;;;;;;3.52;100.00;100004.72;5139686;28;20066;-58
2023/03/18 05:18:03;;;;;;;2.58;1.63;;;;;;;3.74;100.00;100014.91;5139285;28;20055;-60
2023/03/18 05:20:30;;;;;;;3.95;2.17;;;;;;;4.54;97.90;100021.00;5139477;28;20054;-63
2023/03/18 05:22:56;;;;;;;4.85;1.80;;;;;;;4.85;89.81;100037.44;5139085;28;20461;-63
2023/03/18 05:25:22;;;;;;;4.15;1.77;;;;;;;4.62;87.86;100044.69;5139290;28;20145;-65
2023/03/18 05:27:48;;;;;;;5.80;1.75;;;;;;;4.39;89.08;100034.88;5139011;28;20392;-62
2023/03/18 05:30:15;;;;;;;2.55;2.00;;;;;;;5.34;82.71;100040.41;5139105;28;20062;-61
2023/03/18 05:32:41;;;;;;;4.15;1.98;;;;;;;5.21;79.92;100047.50;5139006;28;20191;-62
2023/03/18 05:35:09;;;;;;;8.68;2.05;;;;;;;5.70;81.44;100039.50;5139018;27;20078;-66
2023/03/18 05:37:36;;;;;;;4.45;2.33;;;;;;;6.08;79.10;100043.44;5139014;28;20055;-65
2023/03/18 05:40:01;;;;;;;6.00;2.45;;;;;;;6.07;74.94;100050.03;5138695;28;20492;-63
2023/03/18 05:42:27;;;;;;;4.38;2.13;;;;;;;6.54;74.18;100047.63;5138782;28;20051;-62
2023/03/18 05:44:54;;;;;;;4.78;1.83;;;;;;;6.41;72.10;100054.00;5138821;28;20047;-61
2023/03/18 05:47:20;;;;;;;3.05;1.48;;;;;;;5.50;73.59;100055.25;5139905;28;20047;-63
2023/03/18 05:49:47;;;;;;;2.55;1.90;;;;;;;6.19;75.60;100048.63;5139884;28;20143;-61
2023/03/18 05:52:15;;;;;;;6.45;1.70;;;;;;;5.38;76.35;100041.41;5139157;28;20139;-58
2023/03/18 05:54:42;;;;;;;3.05;1.90;;;;;;;6.46;73.20;100040.22;5138825;28;20047;-58
2023/03/18 05:57:08;;;;;;;4.25;1.90;;;;;;;6.35;72.67;100047.09;5137550;27;20085;-61
2023/03/18 05:59:34;;;;;;;1.88;1.65;;;;;;;7.36;69.63;100047.06;5138814;28;20043;-65
2023/03/18 06:02:00;;;;;;;1.63;1.40;;;;;;;6.19;70.14;100046.69;5138596;28;20076;-66
2023/03/18 06:04:26;;;;;;;1.95;1.63;;;;;;;6.52;73.14;100044.41;5138565;27;20047;-63
2023/03/18 06:06:53;;;;;;;2.38;1.60;;;;;;;7.83;68.97;100041.72;5138376;28;20153;-61
2023/03/18 06:09:21;;;;;;;5.00;1.80;;;;;;;6.73;68.08;100044.66;5138741;28;20059;-66
2023/03/18 06:11:48;;;;;;;2.75;1.77;;;;;;;7.36;68.61;100044.34;5138290;28;20327;-63
2023/03/18 06:14:14;;;;;;;3.10;1.60;;;;;;;6.50;68.42;100043.13;5138874;28;20134;-61
2023/03/18 06:16:41;;;;;;;4.35;2.08;;;;;;;6.96;68.63;100042.56;5138228;28;20141;-66
2023/03/18 06:19:07;;;;;;;4.03;1.95;;;;;;;6.97;68.32;100041.47;5138751;28;20158;-67
2023/03/18 06:21:33;;;;;;;1.92;1.55;;;;;;;7.24;67.25;100045.00;5138023;28;20078;-64
2023/03/18 06:24:00;;;;;;;4.82;1.95;;;;;;;7.64;66.13;100039.38;5138370;28;20097;-62
2023/03/18 06:26:26;;;;;;;4.70;1.75;;;;;;;7.82;66.19;100034.66;5138073;28;20324;-66
2023/03/18 06:28:53;;;;;;;4.63;2.10;;;;;;;7.94;65.83;100043.00;5138254;28;20115;-60
2023/03/18 06:31:19;;;;;;;4.00;2.30;;;;;;;8.83;65.03;100026.66;5138262;28;20047;-61
2023/03/18 06:33:45;;;;;;;5.28;2.42;;;;;;;8.76;62.84;100040.06;5138151;28;20386;-62
2023/03/18 06:36:11;;;;;;;4.32;2.03;;;;;;;8.12;62.08;100044.53;5138234;27;20042;-63
2023/03/18 06:38:37;;;;;;;4.15;2.30;;;;;;;7.58;65.01;100040.66;5138055;28;20043;-63
2023/03/18 06:41:03;;;;;;;2.33;1.77;;;;;;;7.90;63.18;100040.13;5138137;28;20305;-66
2023/03/18 06:43:30;;;;;;;4.05;1.98;;;;;;;8.97;62.24;100029.19;5137760;28;20047;-61
2023/03/18 06:45:56;;;;;;;4.18;2.13;;;;;;;7.54;64.33;100038.56;5138227;28;20055;-67
2023/03/18 06:48:22;;;;;;;3.95;2.63;;;;;;;7.75;64.92;100035.16;5137714;28;20046;-65
2023/03/18 06:50:48;;;;;;;5.15;2.00;;;;;;;6.95;66.31;100043.69;5138147;28;20139;-64
2023/03/18 06:53:14;;;;;;;6.68;2.67;;;;;;;7.31;66.37;100035.22;5137920;28;20058;-62
2023/03/18 06:55:40;;;;;;;9.32;2.20;;;;;;;7.60;65.34;100041.13;5138145;28;20137;-63
2023/03/18 06:58:06;;;;;;;3.35;1.95;;;;;;;7.38;65.94;100045.66;5137740;28;20059;-64
2023/03/18 07:00:33;;;;;;;3.10;1.95;;;;;;;8.00;65.72;100047.16;5137707;28;20172;-67
2023/03/18 07:03:00;;;;;;;5.60;2.30;;;;;;;9.32;63.32;100044.16;5137929;28;20440;-66
2023/03/18 07:05:26;;;;;;;6.28;2.00;;;;;;;8.05;63.52;100049.69;5137477;27;20344;-65
2023/03/18 07:07:53;;;;;;;3.63;2.00;;;;;;;8.15;63.69;100043.88;5137237;27;20138;-62
2023/03/18 07:10:21;;;;;;;3.20;2.10;;;;;;;7.72;65.29;100046.72;5137373;28;20055;-66
2023/03/18 07:12:49;;;;;;;3.40;1.70;;;;;;;7.44;65.08;100043.56;5137686;28;20047;-67
2023/03/18 07:15:15;;;;;;;6.85;2.15;;;;;;;7.80;66.17;100051.38;5137403;28;20051;-65
2023/03/18 07:17:41;;;;;;;4.03;2.25;;;;;;;9.02;63.33;100048.91;5137770;28;20313;-63
2023/03/18 07:20:10;;;;;;;3.88;1.88;;;;;;;8.68;62.95;100050.72;5137472;28;20043;-63
2023/03/18 07:22:36;;;;;;;3.97;2.00;;;;;;;8.31;64.72;100051.53;5137043;28;20493;-63
2023/03/18 07:25:02;;;;;;;2.92;1.70;;;;;;;8.28;63.44;100052.19;5137260;28;20389;-65
2023/03/18 07:27:28;;;;;;;3.10;1.98;;;;;;;8.37;64.42;100056.50;5137280;28;20104;-63
2023/03/18 07:29:55;;;;;;;3.88;1.48;;;;;;;8.22;64.15;100057.81;5137478;28;20320;-67
2023/03/18 07:32:22;;;;;;;2.25;1.63;;;;;;;7.75;65.76;100054.25;5137268;28;20062;-63
2023/03/18 07:34:48;;;;;;;3.33;2.08;;;;;;;7.56;67.04;100057.34;5137412;27;20058;-62
2023/03/18 07:37:15;;;;;;;2.20;2.00;;;;;;;7.55;68.29;100047.56;5137249;28;20138;-65
2023/03/18 07:39:42;;;;;;;2.25;1.77;;;;;;;8.63;67.03;100047.38;5137535;28;20320;-62
2023/03/18 07:42:08;;;;;;;7.47;2.58;;;;;;;8.16;68.04;100050.13;5136954;28;20055;-62
2023/03/18 07:44:35;;;;;;;4.13;1.98;;;;;;;9.88;64.90;100047.34;5137379;28;20143;-65
2023/03/18 07:47:02;;;;;;;3.00;2.08;;;;;;;8.69;64.86;100044.13;5136867;28;20111;-65
2023/03/18 07:49:28;;;;;;;6.53;2.00;;;;;;;9.65;64.26;100046.94;5137078;28;20085;-63
2023/03/18 07:51:55;;;;;;;5.43;2.55;;;;;;;9.25;62.94;100048.59;5136948;28;20408;-62
2023/03/18 07:54:22;;;;;;;4.72;2.03;;;;;;;8.54;65.54;100054.84;5137203;28;20061;-68
2023/03/18 07:56:48;;;;;;;5.43;2.47;;;;;;;8.95;66.57;100043.16;5136874;28;20321;-65
2023/03/18 07:59:15;;;;;;;5.25;2.00;;;;;;;7.99;68.83;100038.13;5136837;28;20079;-63
2023/03/18 08:01:41;;;;;;;6.57;2.40;;;;;;;9.66;65.72;100034.03;5136949;28;20077;-64
2023/03/18 08:04:07;;;;;;;4.25;2.25;;;;;;;9.61;64.74;100039.72;5136757;27;20047;-68
2023/03/18 08:06:33;;;;;;;3.50;2.00;;;;;;;9.23;64.89;100027.03;5137055;28;20097;-66
2023/03/18 08:08:59;;;;;;;5.63;2.10;;;;;;;8.88;66.67;100038.22;5136607;28;20130;-62
2023/03/18 08:11:26;;;;;;;3.63;2.50;;;;;;;9.49;65.49;100039.69;5137223;28;20051;-63
2023/03/18 08:13:52;;;;;;;5.43;2.28;;;;;;;10.62;63.83;100035.69;5136765;28;20062;-63
2023/03/18 08:16:18;;;;;;;5.00;2.60;;;;;;;11.22;61.18;100040.25;5136896;28;20070;-65
2023/03/18 08:18:44;;;;;;;3.63;2.33;;;;;;;10.57;61.87;100043.00;5136674;28;20138;-67
2023/03/18 08:21:10;;;;;;;2.63;2.00;;;;;;;9.24;64.19;100039.56;5138701;27;20289;-65
2023/03/18 08:23:37;;;;;;;4.75;1.70;;;;;;;8.64;65.35;100024.41;5139967;28;20381;-63
2023/03/18 08:26:04;;;;;;;3.92;1.83;;;;;;;9.92;64.79;100030.22;5140203;28;20074;-67
2023/03/18 08:28:30;;;;;;;6.72;2.17;;;;;;;9.51;65.92;100021.78;5140326;28;20065;-68
2023/03/18 08:30:58;;;;;;;4.00;1.92;;;;;;;9.74;65.78;100027.69;5139849;28;20086;-67
2023/03/18 08:33:25;;;;;;;4.05;2.40;;;;;;;9.46;66.27;100023.94;5140281;28;20393;-69
2023/03/18 08:35:52;;;;;;;4.20;2.33;;;;;;;9.42;66.78;100027.34;5139822;27;20133;-63
2023/03/18 08:38:18;;;;;;;6.57;2.65;;;;;;;9.35;66.72;100024.34;5140239;28;20429;-64
2023/03/18 08:40:45;;;;;;;3.80;2.00;;;;;;;10.46;65.83;100028.16;5139657;28;20043;-66
2023/03/18 08:43:11;;;;;;;5.60;2.53;;;;;;;9.47;66.17;100029.06;5140313;28;20077;-66
2023/03/18 08:45:38;;;;;;;3.15;2.22;;;;;;;9.81;66.91;100027.13;5139634;28;20047;-67
2023/03/18 08:48:04;;;;;;;2.83;2.30;;;;;;;9.93;64.15;100038.13;5139562;28;20493;-68
2023/03/18 08:50:30;;;;;;;3.17;2.08;;;;;;;9.56;65.44;100032.53;5139841;28;20134;-65
2023/03/18 08:52:59;;;;;;;2.30;2.00;;;;;;;10.62;63.49;100041.97;5140123;28;20200;-61
2023/03/18 08:55:29;;;;;;;4.72;2.25;;;;;;;10.72;64.46;100036.00;5141231;28;20047;-63
2023/03/18 08:57:55;;;;;;;5.25;2.58;;;;;;;10.36;65.52;100026.69;5139945;28;20086;-62
2023/03/18 09:00:21;;;;;;;3.70;2.22;;;;;;;9.92;67.04;100013.81;5139723;28;20055;-62
2023/03/18 09:02:48;;;;;;;7.65;2.67;;;;;;;9.74;67.54;100021.41;5139249;28;20511;-65
2023/03/18 09:05:14;;;;;;;4.15;2.30;;;;;;;9.88;66.20;100019.94;5139700;27;20096;-67
2023/03/18 09:07:40;;;;;;;7.25;2.17;;;;;;;11.26;63.48;100023.88;5139373;28;20130;-67
2023/03/18 09:10:08;;;;;;;4.72;2.58;;;;;;;10.19;65.28;100020.56;5139781;28;20081;-68
2023/03/18 09:12:34;;;;;;;3.90;2.20;;;;;;;10.34;65.21;100014.44;5139050;28;20133;-66
2023/03/18 09:15:01;;;;;;;3.90;2.55;;;;;;;11.36;63.51;100009.66;5139756;28;20071;-62
2023/03/18 09:17:27;;;;;;;4.80;2.00;;;;;;;10.58;62.52;100013.63;5139306;28;20115;-62
2023/03/18 09:19:53;;;;;;;6.20;2.60;;;;;;;9.40;66.60;100006.94;5139294;28;20088;-63
2023/03/18 09:22:20;;;;;;;3.22;2.13;;;;;;;11.09;66.25;100003.03;5139323;28;20047;-63
2023/03/18 09:24:46;;;;;;;3.55;2.50;;;;;;;11.15;63.04;100004.38;5139125;28;20051;-66
2023/03/18 09:27:13;;;;;;;3.95;2.50;;;;;;;11.54;63.46;99993.72;5139347;28;20058;-67
2023/03/18 09:29:39;;;;;;;3.13;1.92;;;;;;;9.52;66.89;100000.69;5138921;28;20489;-68
2023/03/18 09:32:05;;;;;;;4.22;2.35;;;;;;;9.92;68.63;100020.06;5138820;27;20062;-65
2023/03/18 09:34:31;;;;;;;3.65;2.42;;;;;;;8.62;72.71;99991.13;5138737;27;20043;-68
2023/03/18 09:36:58;;;;;;;4.55;2.28;;;;;;;8.89;74.03;99996.06;5139464;28;20138;-67
2023/03/18 09:39:24;;;;;;;7.65;2.35;;;;;;;9.26;72.84;99998.97;5138672;28;20138;-68
2023/03/18 09:42:04;;;;;;;2.03;1.83;;;;;;;8.51;75.15;100006.31;5139043;28;20061;-67
2023/03/18 09:44:33;;;;;;;3.90;2.13;;;;;;;8.24;75.39;99984.56;5138935;28;20422;-65
2023/03/18 09:47:41;;;;;;;3.60;2.38;;;;;;;8.26;77.69;99984.22;5138317;28;20047;-68
2023/03/18 09:50:17;;;;;;;8.25;2.60;;;;;;;8.19;79.26;99983.94;5138691;28;20057;-67
2023/03/18 09:52:47;;;;;;;4.45;2.50;;;;;;;8.48;78.38;99977.69;5138971;28;20120;-65
2023/03/18 09:55:23;;;;;;;6.13;2.20;;;;;;;8.98;74.16;99978.81;5139067;28;20142;-63
2023/03/18 09:57:53;;;;;;;3.58;2.42;;;;;;;8.34;79.45;99963.47;5138698;28;20169;-65
2023/03/18 10:00:24;;;;;;;7.35;2.10;;;;;;;8.37;80.14;99960.88;5138565;28;20137;-62
2023/03/18 10:02:55;;;;;;;9.15;2.53;;;;;;;8.95;76.55;99961.13;5138586;28;20138;-67
2023/03/18 10:05:28;;;;;;;2.22;1.67;;;;;;;9.01;76.49;99959.78;5138429;27;20047;-66
2023/03/18 10:07:59;;;;;;;4.43;2.38;;;;;;;9.91;74.36;99958.22;5138793;28;20133;-67
2023/03/18 10:10:29;;;;;;;5.25;2.45;;;;;;;9.06;73.93;99954.09;5138383;28;20062;-63
2023/03/18 10:13:05;;;;;;;5.28;2.47;;;;;;;9.75;75.02;99957.28;5138642;28;20141;-67
2023/03/18 10:15:36;;;;;;;5.00;2.63;;;;;;;9.64;73.22;99965.94;5138219;28;20051;-67
2023/03/18 10:18:09;;;;;;;4.25;2.90;;;;;;;10.04;75.23;99954.34;5138183;28;20058;-67
2023/03/18 10:20:56;;;;;;;4.15;2.25;;;;;;;9.73;74.62;99946.69;5138578;28;20069;-63
2023/03/18 10:23:31;;;;;;;6.95;2.67;;;;;;;10.03;72.73;99951.94;5138252;28;20340;-63
2023/03/18 10:26:03;;;;;;;6.35;2.40;;;;;;;10.33;74.83;99945.13;5138522;28;20124;-63
2023/03/18 10:28:55;;;;;;;9.00;2.53;;;;;;;9.79;74.83;99948.03;5138080;28;20047;-62
2023/03/18 10:31:35;;;;;;;4.57;2.38;;;;;;;9.20;77.98;99934.69;5135069;28;20069;-66
2023/03/18 10:34:05;;;;;;;9.00;3.17;;;;;;;9.13;77.96;99939.88;5138287;28;20149;-63
2023/03/18 10:36:38;;;;;;;6.72;2.65;;;;;;;8.81;78.36;99928.59;5138191;28;20047;-62
2023/03/18 10:39:12;;;;;;;10.35;3.30;;;;;;;9.01;80.58;99929.72;5138225;28;20047;-63
2023/03/18 10:41:39;;;;;;;8.40;3.03;;;;;;;8.77;81.25;99918.66;5120412;28;20047;-63
2023/03/18 10:44:17;;;;;;;3.58;2.60;;;;;;;8.15;83.98;99911.97;5137326;27;20191;-62
2023/03/18 10:46:45;;;;;;;4.03;2.15;;;;;;;8.51;85.04;99911.44;5137708;28;20043;-62
2023/03/18 10:49:17;;;;;;;3.38;1.95;;;;;;;8.44;86.97;99901.06;5138296;28;20051;-67
2023/03/18 10:51:49;;;;;;;4.95;2.30;;;;;;;9.22;84.39;99910.50;5137967;28;20066;-60
2023/03/18 10:54:22;;;;;;;5.45;2.47;;;;;;;8.93;83.78;99901.31;5137817;28;20086;-65
2023/03/18 10:56:48;;;;;;;3.83;2.63;;;;;;;7.95;87.81;99891.69;5137827;28;20133;-66
2023/03/18 10:59:16;;;;;;;4.22;1.95;;;;;;;7.91;88.48;99880.63;5137780;28;20051;-63
2023/03/18 11:01:48;;;;;;;5.53;2.40;;;;;;;8.29;88.85;99877.00;5137814;28;20302;-65
2023/03/18 11:04:18;;;;;;;3.78;2.00;;;;;;;7.61;89.79;99879.81;5137481;27;20051;-67
2023/03/18 11:06:48;;;;;;;5.22;2.15;;;;;;;7.53;92.30;99869.72;5137489;28;20055;-64
2023/03/18 11:09:18;;;;;;;7.85;2.50;;;;;;;7.27;94.02;99867.09;5137751;28;20062;-62
2023/03/18 11:11:45;;;;;;;3.33;2.03;;;;;;;7.35;95.75;99866.25;5138136;28;20093;-59
2023/03/18 11:14:15;;;;;;;3.88;1.98;;;;;;;7.03;100.00;99854.81;5137563;28;20048;-63
2023/03/18 11:16:48;;;;;;;6.22;2.47;;;;;;;7.38;98.50;99843.78;5137575;28;20055;-63
2023/03/18 11:19:31;;;;;;;4.63;2.22;;;;;;;8.25;92.35;99852.28;5137610;28;20097;-63
2023/03/18 11:22:14;;;;;;;6.75;2.60;;;;;;;7.89;91.70;99843.84;5134878;28;20077;-65
2023/03/18 11:24:41;;;;;;;4.07;2.58;;;;;;;7.75;93.77;99850.34;5137674;28;20069;-63
2023/03/18 11:27:32;;;;;;;4.20;2.78;;;;;;;8.36;89.66;99852.69;5137218;28;20062;-66
2023/03/18 11:30:00;;;;;;;4.32;2.00;;;;;;;8.29;89.68;99846.97;5137369;28;20051;-62
2023/03/18 11:32:28;;;;;;;4.40;2.40;;;;;;;7.77;93.34;99839.91;5137445;28;20047;-64
2023/03/18 11:34:56;;;;;;;2.70;2.20;;;;;;;7.65;94.23;99834.34;5137243;27;20391;-61